Time;durP1;ratioP1;P1;durP2;ratioP2;P2;SDS_P1;SDS_P2;PMS_P1;PMS_P2;Temp;Humidity;BMP_temperature;BMP_pressure;BME280_temperature;BME280_humidity;BME280_pressure;Samples;Min_cycle;Max_cycle;Signal;HPM_P1;HPM_P2
2023/11/27 00:00:38;;;;;;;19.35;8.82;;;5.60;99.90;;;;;;5017216;28;20060;-75
2023/11/27 00:03:03;;;;;;;18.92;8.13;;;5.70;99.90;;;;;;5015796;28;20017;-75
2023/11/27 00:05:29;;;;;;;17.48;8.57;;;5.70;99.90;;;;;;5015894;28;20367;-75
2023/11/27 00:07:55;;;;;;;19.65;9.63;;;5.70;99.90;;;;;;5017241;28;20065;-75
2023/11/27 00:10:20;;;;;;;20.83;8.73;;;5.70;99.90;;;;;;5016885;28;20030;-75
2023/11/27 00:12:48;;;;;;;18.65;9.50;;;5.60;99.90;;;;;;5016843;28;20087;-75
2023/11/27 00:15:14;;;;;;;22.65;9.63;;;5.60;99.90;;;;;;5015879;28;20436;-75
2023/11/27 00:17:40;;;;;;;18.95;9.18;;;5.60;99.90;;;;;;5016823;28;20052;-75
2023/11/27 00:20:06;;;;;;;18.35;7.57;;;5.70;99.90;;;;;;5016852;28;20011;-75
2023/11/27 00:22:31;;;;;;;18.63;9.32;;;5.70;99.90;;;;;;5015307;28;20029;-75
2023/11/27 00:24:57;;;;;;;14.98;7.80;;;5.70;99.90;;;;;;5015562;28;20022;-75
2023/11/27 00:27:22;;;;;;;18.58;8.98;;;5.60;99.90;;;;;;5015398;28;20037;-75
2023/11/27 00:29:48;;;;;;;16.02;8.63;;;5.70;99.90;;;;;;5015386;28;20405;-75
2023/11/27 00:32:14;;;;;;;17.25;8.05;;;5.70;99.90;;;;;;5015562;28;20026;-75
2023/11/27 00:34:39;;;;;;;21.63;8.75;;;5.60;99.90;;;;;;5016747;28;20096;-75
2023/11/27 00:37:05;;;;;;;19.70;7.63;;;5.70;99.90;;;;;;5016774;28;20030;-75
2023/11/27 00:39:30;;;;;;;14.27;7.63;;;5.70;99.90;;;;;;5016214;28;20498;-75
2023/11/27 00:41:56;;;;;;;19.35;9.43;;;5.70;99.90;;;;;;5015498;28;20402;-75
2023/11/27 00:44:21;;;;;;;15.38;7.80;;;5.60;99.90;;;;;;5015186;28;20014;-75
2023/11/27 00:46:47;;;;;;;18.17;8.40;;;5.70;99.90;;;;;;5016909;28;20496;-75
2023/11/27 00:49:13;;;;;;;14.13;7.93;;;5.70;99.90;;;;;;5016762;28;20529;-75
2023/11/27 00:51:38;;;;;;;14.40;8.10;;;5.60;99.90;;;;;;5016633;28;20026;-75
2023/11/27 00:54:04;;;;;;;12.85;6.20;;;5.60;99.90;;;;;;5016329;28;20026;-75
2023/11/27 00:56:30;;;;;;;16.08;7.63;;;5.60;99.90;;;;;;5015913;28;20022;-75
2023/11/27 00:58:55;;;;;;;19.15;9.48;;;5.60;99.90;;;;;;5014804;28;20022;-75
2023/11/27 01:01:21;;;;;;;16.73;7.53;;;5.60;99.90;;;;;;5016028;28;20540;-75
2023/11/27 01:03:46;;;;;;;16.63;8.45;;;5.60;99.90;;;;;;5016884;28;20026;-75
2023/11/27 01:06:13;;;;;;;24.95;9.35;;;5.60;99.90;;;;;;5015054;28;20057;-74
2023/11/27 01:08:43;;;;;;;18.42;8.43;;;5.50;99.90;;;;;;5015970;28;20505;-74
2023/11/27 01:11:08;;;;;;;14.88;8.52;;;5.50;99.90;;;;;;5015980;28;20022;-75
2023/11/27 01:13:34;;;;;;;18.52;7.88;;;5.40;99.90;;;;;;5015832;28;20091;-75
2023/11/27 01:16:00;;;;;;;17.63;8.35;;;5.50;99.90;;;;;;5015853;28;20389;-75
2023/11/27 01:18:27;;;;;;;16.63;7.22;;;5.50;99.90;;;;;;5014409;28;20485;-75
2023/11/27 01:20:53;;;;;;;16.02;7.25;;;5.40;99.90;;;;;;5014487;28;20044;-75
2023/11/27 01:23:19;;;;;;;14.55;7.07;;;5.40;99.90;;;;;;5015623;28;20108;-75
2023/11/27 01:25:44;;;;;;;18.38;7.25;;;5.40;99.90;;;;;;5014839;28;20117;-75
2023/11/27 01:28:10;;;;;;;15.38;7.90;;;5.40;99.90;;;;;;5014365;28;20041;-75
2023/11/27 01:30:36;;;;;;;16.90;7.10;;;5.40;99.90;;;;;;5015225;28;20037;-74
2023/11/27 01:33:04;;;;;;;13.25;6.50;;;5.30;99.90;;;;;;5015562;28;20033;-75
2023/11/27 01:35:29;;;;;;;10.82;6.00;;;5.40;99.90;;;;;;5015719;28;20018;-75
2023/11/27 01:37:55;;;;;;;20.38;6.80;;;5.40;99.90;;;;;;5015479;28;20038;-75
2023/11/27 01:40:21;;;;;;;17.52;6.18;;;5.40;99.90;;;;;;5014446;28;20022;-75
2023/11/27 01:42:47;;;;;;;14.85;6.88;;;5.40;99.90;;;;;;5015527;28;20474;-75
2023/11/27 01:45:13;;;;;;;11.90;5.28;;;5.40;99.90;;;;;;5015868;28;20022;-75
2023/11/27 01:47:39;;;;;;;16.20;5.13;;;5.40;99.90;;;;;;5015274;28;20026;-75
2023/11/27 01:50:06;;;;;;;11.52;5.38;;;5.30;99.90;;;;;;5015856;28;20490;-75
2023/11/27 01:52:33;;;;;;;15.73;4.97;;;5.30;99.90;;;;;;5015522;28;20025;-74
2023/11/27 01:54:59;;;;;;;14.07;5.65;;;5.30;99.90;;;;;;5015391;28;20033;-75
2023/11/27 01:57:25;;;;;;;14.38;4.72;;;5.30;99.90;;;;;;5015015;28;20393;-75
2023/11/27 01:59:54;;;;;;;13.45;4.47;;;5.30;99.90;;;;;;5015058;28;20030;-75
2023/11/27 02:02:20;;;;;;;10.18;4.82;;;5.20;99.90;;;;;;5015093;28;20026;-75
2023/11/27 02:04:46;;;;;;;13.27;4.65;;;5.30;99.90;;;;;;5015960;28;20097;-75
2023/11/27 02:07:13;;;;;;;11.02;4.22;;;5.30;99.90;;;;;;5014964;28;20026;-75
2023/11/27 02:09:39;;;;;;;7.85;3.85;;;5.30;99.90;;;;;;5014436;28;20030;-75
2023/11/27 02:12:04;;;;;;;7.75;3.28;;;6.90;99.90;;;;;;5015108;28;20088;-75
2023/11/27 02:14:30;;;;;;;10.18;3.60;;;5.20;99.90;;;;;;5014879;28;20033;-75
2023/11/27 02:16:57;;;;;;;11.00;3.08;;;5.30;99.90;;;;;;5015305;28;20029;-75
2023/11/27 02:19:22;;;;;;;10.02;4.07;;;5.20;99.90;;;;;;5014074;28;20077;-75
2023/11/27 02:21:49;;;;;;;9.57;3.55;;;7.50;99.90;;;;;;5013581;28;20456;-75
2023/11/27 02:24:14;;;;;;;8.00;3.85;;;5.20;99.90;;;;;;5015228;28;20026;-75
2023/11/27 02:26:40;;;;;;;7.72;3.75;;;5.20;99.90;;;;;;5015015;28;20351;-75
2023/11/27 02:29:06;;;;;;;13.30;3.33;;;5.20;99.90;;;;;;5013040;28;20021;-75
2023/11/27 02:31:31;;;;;;;11.43;3.80;;;5.20;99.90;;;;;;5014909;28;20026;-75
2023/11/27 02:33:57;;;;;;;7.65;3.10;;;5.20;99.90;;;;;;5013294;28;20037;-75
2023/11/27 02:36:26;;;;;;;5.72;2.83;;;5.20;99.90;;;;;;5015193;28;20482;-75
2023/11/27 02:38:52;;;;;;;8.07;3.33;;;5.20;99.90;;;;;;5014343;28;20482;-75
2023/11/27 02:41:18;;;;;;;8.38;3.15;;;5.20;99.90;;;;;;5014286;28;20056;-75
2023/11/27 02:43:44;;;;;;;9.48;2.90;;;5.20;99.90;;;;;;5013813;28;20025;-75
2023/11/27 02:46:09;;;;;;;5.55;3.22;;;5.20;99.90;;;;;;5012931;28;20168;-75
2023/11/27 02:48:35;;;;;;;8.70;3.00;;;5.20;99.90;;;;;;5014255;28;20025;-74
2023/11/27 02:51:01;;;;;;;5.38;2.80;;;5.20;99.90;;;;;;5014677;28;20413;-75
2023/11/27 02:53:27;;;;;;;7.25;3.85;;;5.20;99.90;;;;;;5015075;28;20038;-74
2023/11/27 02:55:53;;;;;;;4.50;2.63;;;5.10;99.90;;;;;;5014202;28;20543;-75
2023/11/27 02:58:19;;;;;;;9.32;3.67;;;5.10;99.90;;;;;;5014118;28;20053;-75
2023/11/27 03:00:44;;;;;;;11.23;2.75;;;5.10;99.90;;;;;;5012944;28;20022;-75
2023/11/27 03:03:10;;;;;;;7.90;2.33;;;5.20;99.90;;;;;;5014082;28;20025;-75
2023/11/27 03:05:36;;;;;;;7.03;2.60;;;5.20;99.90;;;;;;5012897;28;20018;-75
2023/11/27 03:08:02;;;;;;;8.93;3.03;;;5.20;99.90;;;;;;5013727;28;20060;-75
2023/11/27 03:10:28;;;;;;;7.55;2.85;;;5.20;99.90;;;;;;5013851;28;20053;-75
2023/11/27 03:12:53;;;;;;;6.65;2.72;;;5.20;99.90;;;;;;5012594;28;20529;-75
2023/11/27 03:15:20;;;;;;;6.82;2.58;;;5.20;99.90;;;;;;5012417;28;20083;-75
2023/11/27 03:17:46;;;;;;;6.20;3.08;;;5.20;99.90;;;;;;5012372;28;20026;-75
2023/11/27 03:20:12;;;;;;;9.52;3.15;;;5.20;99.90;;;;;;5012623;28;20026;-75
2023/11/27 03:22:38;;;;;;;6.57;3.28;;;5.20;99.90;;;;;;5012783;28;20018;-75
2023/11/27 03:25:04;;;;;;;6.93;2.95;;;5.20;99.90;;;;;;5014422;28;20462;-75
2023/11/27 03:27:29;;;;;;;6.95;3.05;;;5.20;99.90;;;;;;5014634;28;20052;-75
2023/11/27 03:29:55;;;;;;;6.30;3.30;;;5.20;99.90;;;;;;5012192;28;20018;-75
2023/11/27 03:32:20;;;;;;;8.93;3.63;;;5.80;99.90;;;;;;5016336;28;20018;-75
2023/11/27 03:34:46;;;;;;;8.95;3.05;;;5.20;99.90;;;;;;5017670;28;20030;-75
2023/11/27 03:37:12;;;;;;;6.60;3.53;;;5.20;99.90;;;;;;5016251;28;20022;-75
2023/11/27 03:39:37;;;;;;;10.10;3.58;;;5.20;99.90;;;;;;5017490;28;20033;-75
2023/11/27 03:42:03;;;;;;;7.60;3.47;;;5.30;99.90;;;;;;5016190;28;20072;-75
2023/11/27 03:44:28;;;;;;;7.78;3.30;;;5.20;99.90;;;;;;5017481;28;20370;-75
2023/11/27 03:46:54;;;;;;;11.43;4.63;;;5.20;99.90;;;;;;5017475;28;20104;-75
2023/11/27 03:49:19;;;;;;;11.20;3.70;;;5.20;99.90;;;;;;5017091;28;20052;-75
2023/11/27 03:51:45;;;;;;;10.98;3.25;;;5.20;99.90;;;;;;5017679;28;20451;-75
2023/11/27 03:54:14;;;;;;;7.40;3.40;;;5.20;99.90;;;;;;5017143;28;20061;-75
2023/11/27 03:56:40;;;;;;;6.85;3.75;;;5.20;99.90;;;;;;5015706;28;20449;-75
2023/11/27 03:59:06;;;;;;;8.23;3.10;;;5.20;99.90;;;;;;5017051;28;20053;-75
2023/11/27 04:01:32;;;;;;;6.63;3.10;;;5.20;99.90;;;;;;5017041;28;20045;-75
2023/11/27 04:03:59;;;;;;;7.13;3.38;;;5.20;99.90;;;;;;5015790;28;20080;-75
2023/11/27 04:06:29;;;;;;;7.57;2.90;;;5.20;99.90;;;;;;5017760;28;20022;-75
2023/11/27 04:08:55;;;;;;;4.82;3.13;;;5.20;99.90;;;;;;5017174;28;20084;-75
2023/11/27 04:11:20;;;;;;;8.98;3.22;;;5.20;99.90;;;;;;5015732;28;20018;-75
2023/11/27 04:13:46;;;;;;;6.40;3.47;;;5.20;99.90;;;;;;5016755;28;20030;-75
2023/11/27 04:16:11;;;;;;;8.25;3.00;;;5.20;99.90;;;;;;5017634;28;20029;-75
2023/11/27 04:18:37;;;;;;;6.47;3.10;;;5.10;99.90;;;;;;5015464;28;20025;-75
2023/11/27 04:21:03;;;;;;;17.05;3.50;;;5.10;99.90;;;;;;5016737;28;20044;-75
2023/11/27 04:23:30;;;;;;;4.25;2.80;;;5.10;99.90;;;;;;5016913;28;20037;-75
2023/11/27 04:25:56;;;;;;;8.40;2.85;;;5.10;99.90;;;;;;5015374;28;20032;-75
2023/11/27 04:28:22;;;;;;;6.00;2.75;;;5.10;99.90;;;;;;5016294;28;20018;-75
2023/11/27 04:30:47;;;;;;;8.45;2.97;;;5.10;99.90;;;;;;5015307;28;20037;-75
2023/11/27 04:33:14;;;;;;;7.53;2.50;;;5.10;99.90;;;;;;5015337;28;20076;-74
2023/11/27 04:35:41;;;;;;;4.25;2.70;;;5.10;99.90;;;;;;5017191;28;20049;-75
2023/11/27 04:38:07;;;;;;;4.72;2.38;;;5.10;99.90;;;;;;5016117;28;20030;-75
2023/11/27 04:40:33;;;;;;;2.60;1.58;;;5.10;99.90;;;;;;5015351;28;20474;-75
2023/11/27 04:42:58;;;;;;;4.65;1.90;;;5.10;99.90;;;;;;5014683;28;20025;-75
2023/11/27 04:45:24;;;;;;;6.18;2.30;;;5.10;99.90;;;;;;5015129;28;20040;-74
2023/11/27 04:47:50;;;;;;;5.25;1.52;;;5.00;99.90;;;;;;5016431;28;20400;-74
2023/11/27 04:50:15;;;;;;;3.45;1.67;;;5.00;99.90;;;;;;5016226;28;20014;-74
2023/11/27 04:52:41;;;;;;;5.53;2.42;;;5.10;99.90;;;;;;5014927;28;20485;-74
2023/11/27 04:55:07;;;;;;;3.28;1.80;;;5.00;99.90;;;;;;5015032;28;20500;-74
2023/11/27 04:57:33;;;;;;;4.03;1.88;;;5.00;99.90;;;;;;5016017;28;20057;-74
2023/11/27 04:59:59;;;;;;;9.00;1.45;;;5.00;99.90;;;;;;5016587;28;20018;-74
2023/11/27 05:02:28;;;;;;;5.15;1.73;;;4.90;99.90;;;;;;5014480;28;20551;-74
2023/11/27 05:04:53;;;;;;;2.20;1.38;;;4.70;99.90;;;;;;5014947;28;20109;-74
2023/11/27 05:07:19;;;;;;;3.65;1.60;;;4.90;99.90;;;;;;5014906;28;20060;-74
2023/11/27 05:09:44;;;;;;;2.25;1.38;;;4.90;99.90;;;;;;5014762;28;20122;-74
2023/11/27 05:12:10;;;;;;;2.22;1.13;;;4.90;99.90;;;;;;5014693;28;20021;-74
2023/11/27 05:14:36;;;;;;;4.00;1.45;;;4.90;99.90;;;;;;5014458;28;20026;-74
2023/11/27 05:17:01;;;;;;;2.50;1.25;;;4.90;99.90;;;;;;5014245;28;20092;-74
2023/11/27 05:19:29;;;;;;;3.00;1.13;;;4.90;99.90;;;;;;5014607;28;20036;-74
2023/11/27 05:21:55;;;;;;;2.47;1.43;;;4.90;99.90;;;;;;5015639;28;20021;-74
2023/11/27 05:24:21;;;;;;;2.75;1.50;;;4.90;99.90;;;;;;5015697;28;20022;-74
2023/11/27 05:26:46;;;;;;;3.65;1.30;;;4.90;99.90;;;;;;5014396;28;20060;-74
2023/11/27 05:29:12;;;;;;;3.25;1.23;;;4.90;99.90;;;;;;5015496;28;20036;-74
2023/11/27 05:31:37;;;;;;;3.15;1.35;;;4.90;99.90;;;;;;5015482;28;20040;-74
2023/11/27 05:34:03;;;;;;;3.10;1.15;;;4.90;99.90;;;;;;5015957;28;20041;-74
2023/11/27 05:36:28;;;;;;;5.72;1.98;;;4.90;99.90;;;;;;5013716;28;20022;-74
2023/11/27 05:38:54;;;;;;;2.63;1.15;;;4.90;99.90;;;;;;5015351;28;20038;-74
2023/11/27 05:41:22;;;;;;;5.03;2.30;;;4.90;99.90;;;;;;5014125;28;20024;-74
2023/11/27 05:43:48;;;;;;;2.25;1.20;;;4.90;99.90;;;;;;5014116;28;20084;-73
2023/11/27 05:46:13;;;;;;;3.35;1.10;;;4.90;99.90;;;;;;5014057;28;20068;-74
2023/11/27 05:48:39;;;;;;;3.25;1.38;;;4.90;99.90;;;;;;5015269;28;20034;-74
2023/11/27 05:51:06;;;;;;;2.15;1.10;;;4.90;99.90;;;;;;5014228;28;20498;-74
2023/11/27 05:53:31;;;;;;;4.03;0.75;;;4.90;99.90;;;;;;5013245;28;20026;-74
2023/11/27 05:55:57;;;;;;;1.27;0.50;;;4.90;99.90;;;;;;5015104;28;20486;-74
2023/11/27 05:58:23;;;;;;;1.23;0.50;;;4.90;99.90;;;;;;5015171;28;20060;-74
2023/11/27 06:00:51;;;;;;;2.45;1.00;;;4.90;99.90;;;;;;5015095;28;20017;-74
2023/11/27 06:03:17;;;;;;;1.00;0.45;;;4.90;99.90;;;;;;5014246;28;20128;-74
2023/11/27 06:05:42;;;;;;;2.00;0.40;;;4.90;99.90;;;;;;5015022;28;20022;-74
2023/11/27 06:08:09;;;;;;;1.80;0.57;;;4.90;99.90;;;;;;5015027;28;20125;-75
2023/11/27 06:10:34;;;;;;;1.38;0.32;;;4.90;99.90;;;;;;5014916;28;20113;-74
2023/11/27 06:13:00;;;;;;;0.82;0.35;;;4.90;99.90;;;;;;5015019;28;20058;-74
2023/11/27 06:15:25;;;;;;;2.20;0.77;;;4.80;99.90;;;;;;5014878;28;20432;-74
2023/11/27 06:17:51;;;;;;;1.05;0.40;;;4.90;99.90;;;;;;5014544;28;20474;-74
2023/11/27 06:20:16;;;;;;;1.05;0.40;;;4.80;99.90;;;;;;5014614;28;20026;-75
2023/11/27 06:22:42;;;;;;;0.73;0.47;;;4.80;99.90;;;;;;5013245;28;20018;-74
2023/11/27 06:25:09;;;;;;;1.13;0.40;;;4.80;99.90;;;;;;5013207;28;20029;-74
2023/11/27 06:27:35;;;;;;;1.40;0.40;;;4.80;99.90;;;;;;5014546;28;20064;-75
2023/11/27 06:30:00;;;;;;;0.47;0.30;;;4.80;99.90;;;;;;5014385;28;20053;-74
2023/11/27 06:32:26;;;;;;;1.75;0.43;;;4.80;99.90;;;;;;5015210;28;20377;-74
2023/11/27 06:34:52;;;;;;;1.25;0.75;;;4.70;99.90;;;;;;5013143;28;20394;-75
2023/11/27 06:37:18;;;;;;;0.68;0.30;;;4.70;99.90;;;;;;5013104;28;20060;-75
2023/11/27 06:39:45;;;;;;;2.28;0.73;;;4.70;99.90;;;;;;5013993;28;20021;-75
2023/11/27 06:42:14;;;;;;;1.30;0.70;;;4.70;99.90;;;;;;5014321;28;20018;-74
2023/11/27 06:44:41;;;;;;;0.85;0.50;;;4.70;99.90;;;;;;5014635;28;20025;-74
2023/11/27 06:47:07;;;;;;;1.35;0.57;;;4.70;99.90;;;;;;5012626;28;20022;-74
2023/11/27 06:49:33;;;;;;;4.45;0.70;;;4.60;99.90;;;;;;5014056;28;20041;-74
2023/11/27 06:51:59;;;;;;;1.25;0.70;;;4.70;99.90;;;;;;5012924;28;20429;-74
2023/11/27 06:54:28;;;;;;;2.55;0.63;;;4.70;99.90;;;;;;5012679;28;20053;-74
2023/11/27 06:56:54;;;;;;;1.92;0.57;;;4.70;99.90;;;;;;5012537;28;20108;-74
2023/11/27 06:59:20;;;;;;;2.33;1.33;;;4.70;99.90;;;;;;5013824;28;20022;-74
2023/11/27 07:01:45;;;;;;;3.30;1.05;;;4.70;99.90;;;;;;5012620;28;20014;-74
2023/11/27 07:04:11;;;;;;;1.23;0.75;;;4.70;99.90;;;;;;5014389;28;20501;-74
2023/11/27 07:06:39;;;;;;;3.80;1.05;;;4.70;99.90;;;;;;5012697;28;20018;-74
2023/11/27 07:09:06;;;;;;;1.75;1.20;;;4.60;99.90;;;;;;5013083;28;20482;-75
2023/11/27 07:11:32;;;;;;;6.07;1.02;;;4.70;99.90;;;;;;5014398;28;20025;-75
2023/11/27 07:13:59;;;;;;;1.65;1.08;;;4.70;99.90;;;;;;5014041;28;20029;-75
2023/11/27 07:16:26;;;;;;;2.10;0.90;;;4.70;99.90;;;;;;5014366;28;20355;-75
2023/11/27 07:18:52;;;;;;;1.70;0.82;;;4.70;99.90;;;;;;5012515;28;20113;-75
2023/11/27 07:21:18;;;;;;;2.78;1.08;;;4.70;99.90;;;;;;5013971;28;20056;-75
2023/11/27 07:23:44;;;;;;;4.05;1.10;;;4.60;99.90;;;;;;5012581;28;20022;-75
2023/11/27 07:26:10;;;;;;;4.95;1.48;;;4.60;99.90;;;;;;5012482;28;20080;-75
2023/11/27 07:28:40;;;;;;;1.88;1.27;;;4.60;99.90;;;;;;5012457;28;20393;-75
2023/11/27 07:31:06;;;;;;;3.65;1.63;;;4.60;99.90;;;;;;5014060;28;20540;-76
2023/11/27 07:33:34;;;;;;;2.15;0.95;;;4.60;99.90;;;;;;5013820;28;20029;-76
2023/11/27 07:35:59;;;;;;;4.20;1.45;;;4.60;99.90;;;;;;5013671;28;20430;-74
2023/11/27 07:38:25;;;;;;;1.23;1.00;;;4.60;99.90;;;;;;5013265;28;20061;-75
2023/11/27 07:40:52;;;;;;;2.10;0.95;;;4.60;99.90;;;;;;5013602;28;20018;-75
2023/11/27 07:43:18;;;;;;;1.73;1.10;;;4.60;99.90;;;;;;5013602;28;20021;-75
2023/11/27 07:45:44;;;;;;;6.55;1.30;;;4.60;99.90;;;;;;5012613;28;20448;-75
2023/11/27 07:48:10;;;;;;;2.53;1.25;;;4.60;99.90;;;;;;5014430;28;20018;-75
2023/11/27 07:50:36;;;;;;;1.80;1.20;;;4.60;99.90;;;;;;5013734;28;20076;-75
2023/11/27 07:53:03;;;;;;;2.50;1.50;;;4.60;99.90;;;;;;5012594;28;20029;-76
2023/11/27 07:55:28;;;;;;;4.15;1.65;;;4.60;99.90;;;;;;5014165;28;20022;-76
2023/11/27 07:57:54;;;;;;;2.50;0.90;;;4.60;99.90;;;;;;5013625;28;20081;-76
2023/11/27 08:00:20;;;;;;;3.63;1.55;;;4.60;99.90;;;;;;5013125;28;20022;-77
2023/11/27 08:02:47;;;;;;;2.03;1.42;;;4.60;99.90;;;;;;5013491;28;20022;-76
2023/11/27 08:05:15;;;;;;;3.20;1.38;;;4.70;99.90;;;;;;5012607;28;20018;-76
2023/11/27 08:07:40;;;;;;;3.22;1.75;;;6.10;99.90;;;;;;5012311;28;20022;-76
2023/11/27 08:10:09;;;;;;;3.47;1.30;;;4.70;99.90;;;;;;5013985;28;20026;-77
2023/11/27 08:12:36;;;;;;;2.75;1.30;;;4.70;99.90;;;;;;5012145;28;20124;-76
2023/11/27 08:15:06;;;;;;;2.72;1.40;;;4.70;99.90;;;;;;5013444;28;20112;-76
2023/11/27 08:17:32;;;;;;;4.88;1.50;;;4.70;99.90;;;;;;5014736;28;20505;-76
2023/11/27 08:19:57;;;;;;;2.15;1.30;;;4.70;99.90;;;;;;5015706;28;20045;-76
2023/11/27 08:22:23;;;;;;;4.15;1.30;;;4.70;99.90;;;;;;5017402;28;20052;-76
2023/11/27 08:24:49;;;;;;;2.05;1.45;;;4.60;99.90;;;;;;5015531;28;20029;-77
2023/11/27 08:27:14;;;;;;;3.97;1.13;;;4.70;99.90;;;;;;5015225;28;20571;-77
2023/11/27 08:29:40;;;;;;;2.88;1.38;;;4.60;99.90;;;;;;5015207;28;20393;-77
2023/11/27 08:32:06;;;;;;;2.55;1.30;;;4.70;99.90;;;;;;5015500;28;20165;-77
2023/11/27 08:34:33;;;;;;;2.75;1.30;;;4.70;99.90;;;;;;5016472;28;20450;-77
2023/11/27 08:36:59;;;;;;;2.58;1.20;;;4.70;99.90;;;;;;5016800;28;20026;-77
2023/11/27 08:39:25;;;;;;;1.83;1.10;;;4.60;99.90;;;;;;5016341;28;20511;-77
2023/11/27 08:41:52;;;;;;;2.85;1.35;;;4.70;99.90;;;;;;5016283;28;20050;-77
2023/11/27 08:44:18;;;;;;;2.80;1.83;;;4.70;99.90;;;;;;5016179;28;20080;-77
2023/11/27 08:46:44;;;;;;;2.53;1.33;;;4.70;99.90;;;;;;5017141;28;20061;-76
2023/11/27 08:49:10;;;;;;;1.95;1.40;;;4.70;99.90;;;;;;5014851;28;20030;-77
2023/11/27 08:51:36;;;;;;;3.53;1.05;;;4.70;99.90;;;;;;5015171;28;20456;-77
2023/11/27 08:54:02;;;;;;;3.08;1.58;;;4.70;99.90;;;;;;5016335;28;20029;-77
2023/11/27 08:56:33;;;;;;;3.80;1.60;;;4.70;99.90;;;;;;5015107;28;20022;-77
2023/11/27 08:59:00;;;;;;;1.52;1.25;;;4.70;99.90;;;;;;5014681;28;20033;-77
2023/11/27 09:01:26;;;;;;;2.22;1.30;;;4.70;99.90;;;;;;5014670;28;20014;-77
2023/11/27 09:03:52;;;;;;;2.38;1.60;;;4.70;99.90;;;;;;5014852;28;20029;-77
2023/11/27 09:06:19;;;;;;;2.65;1.38;;;4.70;99.90;;;;;;5016382;28;20386;-77
2023/11/27 09:08:45;;;;;;;3.58;1.45;;;4.70;99.90;;;;;;5015719;28;20025;-77
2023/11/27 09:11:11;;;;;;;3.13;1.00;;;4.70;99.90;;;;;;5014409;28;20026;-77
2023/11/27 09:13:37;;;;;;;5.05;1.13;;;4.80;99.90;;;;;;5014386;28;20022;-77
2023/11/27 09:16:03;;;;;;;3.75;1.30;;;4.80;99.90;;;;;;5014515;28;20100;-77
2023/11/27 09:18:28;;;;;;;3.28;1.10;;;4.80;99.90;;;;;;5015430;28;20018;-77
2023/11/27 09:20:54;;;;;;;5.40;1.08;;;4.70;99.90;;;;;;5014329;28;20499;-77
2023/11/27 09:23:20;;;;;;;1.50;0.90;;;4.80;99.90;;;;;;5015609;28;20030;-77
2023/11/27 09:25:46;;;;;;;2.78;0.90;;;4.80;99.90;;;;;;5015352;28;20462;-77
2023/11/27 09:28:11;;;;;;;3.10;1.02;;;5.00;99.90;;;;;;5014289;28;20061;-77
2023/11/27 09:30:37;;;;;;;3.10;0.82;;;4.80;99.90;;;;;;5014141;28;20437;-77
2023/11/27 09:33:04;;;;;;;2.70;1.10;;;4.80;99.90;;;;;;5015405;28;20054;-77
2023/11/27 09:35:29;;;;;;;3.63;1.52;;;4.80;99.90;;;;;;5015393;28;20018;-77
2023/11/27 09:37:55;;;;;;;4.15;1.42;;;4.80;99.90;;;;;;5014019;28;20040;-77
2023/11/27 09:40:21;;;;;;;1.52;1.08;;;4.80;99.90;;;;;;5014083;28;20076;-77
2023/11/27 09:42:47;;;;;;;3.05;1.08;;;4.90;99.90;;;;;;5015903;28;20021;-77
2023/11/27 09:45:16;;;;;;;6.80;1.50;;;4.90;99.90;;;;;;5015060;28;20474;-77
2023/11/27 09:47:44;;;;;;;3.55;1.35;;;4.90;99.90;;;;;;5015234;28;20018;-77
2023/11/27 09:50:12;;;;;;;2.00;1.20;;;4.90;99.90;;;;;;5015088;28;20161;-77
2023/11/27 09:53:05;;;;;;;1.83;1.08;;;4.90;99.90;;;;;;5015246;28;20026;-77
2023/11/27 09:55:38;;;;;;;1.40;1.20;;;4.90;99.90;;;;;;5015550;28;20385;-77
2023/11/27 09:58:08;;;;;;;2.80;1.52;;;5.00;99.90;;;;;;5015150;28;20018;-77
2023/11/27 10:00:35;;;;;;;3.47;1.48;;;5.00;99.90;;;;;;5014823;28;20441;-77
2023/11/27 10:03:02;;;;;;;4.22;1.60;;;5.00;99.90;;;;;;5013859;28;20072;-77
2023/11/27 10:05:29;;;;;;;2.13;1.30;;;5.10;99.90;;;;;;5015033;28;20033;-77
2023/11/27 10:07:56;;;;;;;3.00;2.00;;;5.10;99.90;;;;;;5015644;28;20026;-77
2023/11/27 10:10:26;;;;;;;2.50;1.52;;;5.10;99.90;;;;;;5013650;28;20037;-77
2023/11/27 10:12:54;;;;;;;1.77;1.58;;;5.10;99.90;;;;;;5014640;28;20551;-77
2023/11/27 10:15:20;;;;;;;1.63;1.02;;;5.10;99.90;;;;;;5013590;28;20124;-77
2023/11/27 10:17:47;;;;;;;1.92;1.48;;;5.20;99.90;;;;;;5013592;28;20442;-77
2023/11/27 10:20:13;;;;;;;3.70;1.73;;;5.20;99.90;;;;;;5014867;28;20021;-77
2023/11/27 10:22:42;;;;;;;3.55;1.33;;;5.20;99.90;;;;;;5014642;28;20048;-77
2023/11/27 10:25:14;;;;;;;3.67;1.13;;;5.20;99.90;;;;;;5014911;28;20030;-77
2023/11/27 10:27:46;;;;;;;2.88;1.45;;;5.20;99.90;;;;;;5014896;28;20030;-76
2023/11/27 10:30:24;;;;;;;2.35;1.38;;;5.20;99.90;;;;;;5014450;28;20083;-77
2023/11/27 10:32:52;;;;;;;2.38;1.55;;;5.20;99.90;;;;;;5014928;28;20366;-77
2023/11/27 10:35:20;;;;;;;3.53;1.50;;;5.30;99.90;;;;;;5013332;28;20108;-77
2023/11/27 10:37:49;;;;;;;4.18;1.55;;;5.30;99.90;;;;;;5014159;28;20022;-77
2023/11/27 10:40:15;;;;;;;3.10;1.73;;;5.30;99.90;;;;;;5012882;28;20184;-77
2023/11/27 10:42:47;;;;;;;2.42;1.30;;;5.30;99.90;;;;;;5014021;28;20050;-77
2023/11/27 10:45:18;;;;;;;2.63;1.42;;;5.40;99.90;;;;;;5014088;28;20026;-77
2023/11/27 10:47:46;;;;;;;2.72;1.67;;;5.40;99.90;;;;;;5014984;28;20025;-77
2023/11/27 10:50:14;;;;;;;3.13;1.83;;;5.40;99.90;;;;;;5014448;28;20374;-77
2023/11/27 10:52:43;;;;;;;1.75;1.40;;;5.40;99.90;;;;;;5014357;28;20508;-77
2023/11/27 10:55:09;;;;;;;;;;;5.40;99.90;;;;;;5014725;28;20054;-77
2023/11/27 10:57:38;;;;;;;6.43;1.13;;;5.40;99.90;;;;;;5013819;28;19976;-77
2023/11/27 11:00:05;;;;;;;4.78;1.30;;;5.50;99.90;;;;;;5012815;28;20026;-77
2023/11/27 11:02:35;;;;;;;3.28;1.35;;;5.50;99.90;;;;;;5012873;28;20022;-77
2023/11/27 11:05:05;;;;;;;2.38;0.98;;;5.50;99.90;;;;;;5014352;28;20013;-77
2023/11/27 11:07:41;;;;;;;3.80;1.58;;;5.50;99.90;;;;;;5014057;28;20022;-76
2023/11/27 11:10:11;;;;;;;1.50;0.90;;;5.50;99.90;;;;;;5014074;28;20541;-77
2023/11/27 11:12:40;;;;;;;1.73;0.88;;;5.50;99.90;;;;;;5013983;28;20022;-77
2023/11/27 11:15:07;;;;;;;1.70;1.35;;;5.50;99.90;;;;;;5014415;28;20026;-77
2023/11/27 11:17:59;;;;;;;2.53;1.10;;;5.60;99.90;;;;;;5014536;28;20033;-77
2023/11/27 11:20:55;;;;;;;1.98;0.95;;;5.60;99.90;;;;;;5013903;28;20029;-77
2023/11/27 11:23:33;;;;;;;2.40;1.15;;;5.60;99.90;;;;;;5014495;28;20076;-77
2023/11/27 11:26:23;;;;;;;1.38;0.90;;;5.60;99.90;;;;;;5014047;28;20477;-77
2023/11/27 11:29:09;;;;;;;2.75;1.45;;;5.70;99.90;;;;;;5014061;28;20018;-77
2023/11/27 11:31:38;;;;;;;1.70;1.38;;;5.70;99.90;;;;;;5013890;28;20030;-77
2023/11/27 11:34:05;;;;;;;1.27;0.82;;;5.70;99.90;;;;;;5013840;28;20106;-77
2023/11/27 11:36:34;;;;;;;2.05;0.68;;;5.70;99.90;;;;;;5012778;28;20030;-77
2023/11/27 11:39:06;;;;;;;0.82;0.70;;;5.70;99.90;;;;;;5013443;28;20168;-77
2023/11/27 11:41:32;;;;;;;2.67;1.20;;;5.70;99.90;;;;;;5013773;28;20496;-77
2023/11/27 11:43:58;;;;;;;3.40;1.08;;;5.70;99.90;;;;;;5013967;28;20054;-77
2023/11/27 11:46:26;;;;;;;1.45;0.98;;;5.80;99.90;;;;;;5014324;28;20512;-77
2023/11/27 11:48:57;;;;;;;2.77;1.30;;;5.80;99.90;;;;;;5013615;28;20447;-77
2023/11/27 11:51:25;;;;;;;2.53;1.10;;;5.80;99.90;;;;;;5014285;28;20273;-77
2023/11/27 11:53:51;;;;;;;2.10;1.08;;;5.80;99.90;;;;;;5017153;28;20025;-77
2023/11/27 11:56:24;;;;;;;2.13;1.30;;;5.80;99.90;;;;;;5017758;28;20105;-77
2023/11/27 11:58:56;;;;;;;7.47;1.65;;;5.80;99.90;;;;;;5017215;28;20030;-77
2023/11/27 12:01:25;;;;;;;3.15;1.30;;;5.80;99.90;;;;;;5017857;28;20022;-77
2023/11/27 12:03:55;;;;;;;3.22;1.60;;;5.80;99.90;;;;;;5015812;28;20129;-77
2023/11/27 12:06:21;;;;;;;2.80;1.20;;;5.80;99.90;;;;;;5015953;28;20486;-77
2023/11/27 12:08:47;;;;;;;1.17;0.80;;;5.80;99.90;;;;;;5017245;28;20105;-77
2023/11/27 12:11:14;;;;;;;2.22;1.05;;;5.90;99.90;;;;;;5015711;28;20446;-77
2023/11/27 12:13:43;;;;;;;0.93;0.70;;;5.90;99.90;;;;;;5015934;28;20026;-77
2023/11/27 12:16:12;;;;;;;2.00;0.93;;;6.70;99.90;;;;;;5015827;28;20054;-76
2023/11/27 12:18:49;;;;;;;2.08;0.90;;;5.90;99.90;;;;;;5015552;28;20481;-77
2023/11/27 12:21:17;;;;;;;0.80;0.40;;;5.90;99.90;;;;;;5017779;28;20049;-77
2023/11/27 12:23:47;;;;;;;2.25;0.50;;;6.00;99.90;;;;;;5017090;28;20490;-76
2023/11/27 12:26:17;;;;;;;1.05;0.43;;;6.10;99.90;;;;;;5015630;28;20022;-76
2023/11/27 12:28:46;;;;;;;1.83;0.30;;;6.10;99.90;;;;;;5017145;28;20029;-76
2023/11/27 12:31:14;;;;;;;1.88;0.17;;;6.10;99.90;;;;;;5015868;28;20029;-76
2023/11/27 12:33:40;;;;;;;1.60;0.33;;;6.20;99.90;;;;;;5015837;28;20032;-77
2023/11/27 12:36:09;;;;;;;1.27;0.82;;;6.20;99.90;;;;;;5015358;28;20768;-76
2023/11/27 12:38:35;;;;;;;0.68;0.40;;;6.20;99.90;;;;;;5016457;28;20038;-76
2023/11/27 12:41:09;;;;;;;0.88;0.43;;;6.20;99.90;;;;;;5017333;28;20029;-76
2023/11/27 12:43:36;;;;;;;2.20;0.70;;;6.20;99.90;;;;;;5015488;28;20029;-77
2023/11/27 12:46:05;;;;;;;0.93;0.25;;;6.30;99.90;;;;;;5016552;28;20022;-77
2023/11/27 12:48:34;;;;;;;1.25;0.55;;;6.30;99.90;;;;;;5015039;28;20149;-76
2023/11/27 12:51:00;;;;;;;;;;;6.30;99.90;;;;;;5016676;28;20040;-76
2023/11/27 12:53:26;;;;;;;0.93;0.30;;;6.40;99.90;;;;;;5016287;28;19905;-76